Terminal Aerodrome Forecast
Issued by NWS

Home | Current Version | Previous Version | Text Only | Print | Product List | Glossary On
Versions: 1 2 3 4 5 6 7 8 9 10 11 12 13 14 15
000
FTUS45 KTFX 262338
TAFBZN
TAF
KBZN 262338Z 2700/2724 35010KT P6SM -SHRA VCTS BKN050CB
      TEMPO 2700/2702 30015G30KT 6SM -TSRA BKN040CB
     FM270300 19008KT P6SM BKN050
     FM270600 26008KT P6SM -SHRA SCT025 OVC040
     FM271100 27008KT 5SM -RASN SCT007 OVC015
     FM271800 30010KT P6SM VCSH SCT015 BKN050=

USA.gov is the U.S. government's official web portal to all federal, state and local government web resources and services.